ESDF

Ronneby Airport

Sweden
METAR ESDF 161220Z 09005KT 2000 -SN BR FEW003 OVC006 00/00 Q1018
Observed Flight Rules
Dec-16 @ 12:20 UTC (25 minutes ago) Instrument Flight Rules
Wind Visibility Clouds Conditions
90° at 5 knots 1,996 meters
  • Few at 300' AGL
  • Overcast at 600' AGL
  • Light Snow
  • Mist
Temperatures Readings
Current 0°C / 32°F
Dewpoint 0°C / 32°F
Humidity 100%
Altimeter 30.06" Hg
Pressure 1018 hPa
Elevation 74
METAR ESDF 161220Z 09005KT 2000 -SN BR FEW003 OVC006 00/00 Q1018
Observed Flight Rules
Dec-16 @ 12:20 UTC
(25 minutes ago)
IFR
Wind Visibility
90° at 5 knots 1,996 meters
Clouds
  • Few at 300' AGL
  • Overcast at 600' AGL
Conditions
  • Light Snow
  • Mist
Temperature Dewpoint
0°C / 32°F 0°C / 32°F
Humidity Altimeter Pressure
100% 30.06" Hg 1018 hPa